• Join FlightAware (Why Join?)
  • Login
  • US Flag 
10:36PM EST


 

Airport Tracker/Info


-or-


 

Live Flight TrackerFlight Track Log ✈ UAL654 ✈ 04-Jun-2013 ✈ KIAH - CYEG

Flight Track Log - Related Links

Times and Time Zones

All times are in EDT time to prevent confusion due to time zone crossing. See the UAL654 flight status page for this flight to view local times or setup timezone preferences in your user account.

Time Position Orientation Groundspeed Altitude Reporting Facility
EDT Latitude Longitude Course Direction KTS MPH feet Rate Location/Type
06:42PM 29.9789 -95.3006 335° Northwest 157 181 700  Level Houston Center
06:43PM 29.9925 -95.2892 36° Northeast 163 188 1,400 1,260 Climbing Houston Center
06:44PM 30.0625 -95.2975 354° North 260 299 2,700 1,560 Climbing Houston Center
06:45PM 30.2841 -95.5088 332° Northwest  Level FlightAware Approximate
06:45PM 30.1100 -95.3297 330° Northwest 254 292 4,600  Level Houston Center
06:46PM 30.3846 -95.5692 334° Northwest  Level FlightAware Approximate
06:46PM 30.1883 -95.3886 327° Northwest 286 329 8,000  Level Houston Center
06:47PM 30.4868 -95.6260 334° Northwest  Level FlightAware Approximate
06:47PM 30.2567 -95.4392 327° Northwest 286 329 10,300  Level Houston Center
06:48PM 30.5898 -95.6807 335° Northwest  Level FlightAware Approximate
06:48PM 30.3353 -95.5000 326° Northwest 333 383 11,000  Level Houston Center
06:49PM 30.4217 -95.5656 327° Northwest 363 418 12,700 1,740 Climbing Houston Center
06:50PM 30.5094 -95.6328 327° Northwest 378 435 14,600 1,800 Climbing Houston Center
06:51PM 30.6253 -95.7008 333° Northwest 391 450 16,500 1,740 Climbing Houston Center
06:52PM 30.7172 -95.7483 336° Northwest 400 460 18,200 1,560 Climbing Houston Center
06:53PM 30.8197 -95.8047 335° Northwest 405 466 19,800 1,380 Climbing Houston Center
06:54PM 30.9483 -95.8719 336° Northwest 421 484 21,100 1,200 Climbing Houston Center
06:55PM 31.0597 -95.9325 335° Northwest 435 501 22,300 1,200 Climbing Houston Center
06:56PM 31.1725 -95.9864 338° Northwest 436 502 23,600 1,140 Climbing Houston Center
06:57PM 31.2931 -96.0319 342° North 449 517 24,700 780 Climbing Houston Center
06:58PM 31.4164 -96.0786 342° North 460 529 25,300 1,020 Climbing Houston Center
06:59PM 31.5550 -96.1325 342° North 468 539 26,900 1,140 Climbing Houston Center
07:00PM 31.6581 -96.1736 341° North 464 534 27,500 960 Climbing Fort Worth Center
07:01PM 31.7819 -96.2231 341° North 464 534 28,700 1,200 Climbing Fort Worth Center
07:02PM 31.8992 -96.2706 341° North 457 526 30,000 1,140 Climbing Fort Worth Center
07:03PM 32.0186 -96.3181 341° North 457 526 31,000 900 Climbing Fort Worth Center
07:04PM 32.1381 -96.3731 339° North 457 526 31,900 840 Climbing Fort Worth Center
07:05PM 32.2453 -96.4506 329° Northwest 451 519 32,700 960 Climbing Fort Worth Center
07:06PM 32.3356 -96.5478 318° Northwest 440 506 33,900 900 Climbing Fort Worth Center
07:07PM 32.4219 -96.6481 316° Northwest 440 506 34,600 660 Climbing Fort Worth Center
07:08PM 32.5122 -96.7483 317° Northwest 434 499 35,300 660 Climbing Fort Worth Center
07:09PM 32.5961 -96.8461 316° Northwest 429 494 36,000 300 Climbing Fort Worth Center
07:10PM 32.6842 -96.9444 317° Northwest 429 494 36,000  Level Fort Worth Center
07:11PM 32.7597 -97.0306 316° Northwest 429 494 36,000  Level Fort Worth Center
07:12PM 32.8539 -97.1389 316° Northwest 429 494 36,000  Level Fort Worth Center
07:13PM 32.9314 -97.2303 315° West 429 494 36,000  Level Fort Worth Center
07:14PM 33.0211 -97.3442 313° West 434 499 36,000  Level Fort Worth Center
07:15PM 33.0983 -97.4433 313° West 448 516 36,000  Level Fort Worth Center
07:16PM 33.1797 -97.5450 314° West 437 503 36,000  Level Fort Worth Center
07:17PM 33.2611 -97.6469 314° West 426 490 36,000  Level Fort Worth Center
07:18PM 33.3403 -97.7517 312° West 426 490 36,000  Level Fort Worth Center
07:19PM 33.4233 -97.8564 314° West 426 490 36,000  Level Fort Worth Center
07:20PM 33.5000 -97.9589 312° West 421 484 36,000  Level Fort Worth Center
07:21PM 33.5914 -98.0519 320° Northwest 421 484 36,000  Level Fort Worth Center
07:22PM 33.6914 -98.1275 328° Northwest 426 490 36,000  Level Fort Worth Center
07:23PM 33.7953 -98.2033 329° Northwest 426 490 36,000  Level Fort Worth Center
07:24PM 33.8947 -98.2792 328° Northwest 426 490 36,000  Level Fort Worth Center
07:25PM 33.9944 -98.3556 328° Northwest 432 497 36,000  Level Fort Worth Center
07:26PM 34.0919 -98.4317 327° Northwest 432 497 36,000  Level Fort Worth Center
07:27PM 34.1914 -98.5108 327° Northwest 427 491 36,000  Level Fort Worth Center
07:28PM 34.2950 -98.5925 327° Northwest 427 491 36,000  Level Fort Worth Center
07:29PM 34.3964 -98.6694 328° Northwest 437 503 36,000  Level Fort Worth Center
07:30PM 34.5000 -98.7489 328° Northwest 437 503 36,000  Level Fort Worth Center
07:31PM 34.6014 -98.8264 328° Northwest 430 495 36,000  Level Fort Worth Center
07:32PM 34.7131 -98.9064 330° Northwest 430 495 36,000  Level Fort Worth Center
07:33PM 34.8164 -98.9892 327° Northwest 430 495 36,000  Level Fort Worth Center
07:34PM 34.9217 -99.0672 329° Northwest 435 501 36,000  Level Fort Worth Center
07:35PM 35.0250 -99.1503 327° Northwest 435 501 36,000  Level Fort Worth Center
07:36PM 35.1303 -99.2286 329° Northwest 435 501 36,000  Level Fort Worth Center
07:38PM 35.2756 -99.3489 326° Northwest 445 512 36,000  Level Kansas City Center
07:39PM 35.3800 -99.4311 327° Northwest 443 510 36,000  Level Kansas City Center
07:40PM 35.4833 -99.5133 327° Northwest 441 507 36,000  Level Kansas City Center
07:41PM 35.5875 -99.5956 327° Northwest 441 507 36,000  Level Kansas City Center
07:42PM 35.7125 -99.6942 327° Northwest 440 506 36,000  Level Kansas City Center
07:43PM 35.8161 -99.7764 327° Northwest 439 505 36,000  Level Kansas City Center
07:44PM 35.9200 -99.8603 327° Northwest 441 507 36,000  Level Kansas City Center
07:45PM 36.0233 -99.9428 327° Northwest 440 506 36,000  Level Kansas City Center
07:46PM 36.1253 -100.0244 327° Northwest 436 502 36,000  Level Kansas City Center
07:47PM 36.2406 -100.0819 338° Northwest 441 507 36,000  Level Kansas City Center
07:48PM 36.3550 -100.1392 338° Northwest 440 506 36,000  Level Kansas City Center
07:49PM 36.4689 -100.1967 338° Northwest 440 506 36,000  Level Kansas City Center
07:50PM 36.6058 -100.2661 338° Northwest 439 505 36,000  Level Kansas City Center
07:51PM 36.7189 -100.3225 338° Northwest 438 504 36,000  Level Kansas City Center
07:52PM 36.8311 -100.3767 339° North 438 504 36,000  Level Kansas City Center
07:53PM 36.9400 -100.4303 339° North 439 505 36,000  Level Kansas City Center
07:54PM 37.0669 -100.4939 338° Northwest 440 506 36,000  Level Kansas City Center
07:55PM 37.1767 -100.5475 339° North 441 507 36,000  Level Kansas City Center
07:56PM 37.3033 -100.6139 337° Northwest 443 510 36,000  Level Kansas City Center
07:57PM 37.3989 -100.6956 326° Northwest 435 501 36,000  Level Kansas City Center
07:58PM 37.5097 -100.7922 325° Northwest 430 495 36,000  Level Kansas City Center
07:59PM 37.6072 -100.8792 325° Northwest 428 493 36,000 -60 Level Kansas City Center
08:00PM 37.7058 -100.9631 326° Northwest 427 491 35,900 -60 Descending Kansas City Center
08:01PM 37.8117 -101.0594 324° Northwest 428 493 35,900  Level Kansas City Center
08:02PM 37.9058 -101.1428 325° Northwest 429 494 36,000  Climbing Kansas City Center
08:04PM 38.0172 -101.2392 326° Northwest 432 497 36,000  Level Kansas City Center
08:05PM 38.1161 -101.3161 329° Northwest 435 501 36,000  Level Kansas City Center
08:06PM 38.2150 -101.3917 329° Northwest 433 498 36,000  Level Kansas City Center
08:07PM 38.3306 -101.4803 329° Northwest 434 499 36,000  Level Kansas City Center
08:08PM 38.4328 -101.5544 330° Northwest 439 505 36,000  Level Kansas City Center
08:09PM 38.5500 -101.6442 329° Northwest 440 506 36,000  Level Kansas City Center
08:10PM 38.6814 -101.7439 329° Northwest 432 497 36,000 -60 Level Denver Center
08:11PM 38.7781 -101.8186 329° Northwest 425 489 35,900  Descending Denver Center
08:12PM 38.8764 -101.8944 329° Northwest 431 496 36,000  Climbing Denver Center
08:13PM 38.9900 -101.9836 329° Northwest 430 495 36,000  Level Denver Center
08:14PM 39.1214 -102.0847 329° Northwest 432 497 36,000  Level Denver Center
08:15PM 39.2014 -102.1503 328° Northwest 428 493 36,000  Level Denver Center
08:16PM 39.3306 -102.2511 329° Northwest 428 493 36,000  Level Denver Center
08:18PM 39.4489 -102.3447 329° Northwest 426 490 36,000  Level Denver Center
08:19PM 39.5614 -102.4328 329° Northwest 436 502 36,000  Level Denver Center
08:20PM 39.6656 -102.5158 328° Northwest 438 504 36,000  Level Denver Center
08:21PM 39.7639 -102.5950 328° Northwest 435 501 36,000  Level Denver Center
08:22PM 39.8775 -102.6867 328° Northwest 430 495 36,000  Level Denver Center
08:23PM 39.9694 -102.7608 328° Northwest 431 496 36,000  Level Denver Center
08:24PM 40.0719 -102.8436 328° Northwest 434 499 36,000  Level Denver Center
08:25PM 40.1939 -102.9414 329° Northwest 430 495 36,000  Level Denver Center
08:26PM 40.2931 -103.0222 328° Northwest 423 487 36,000  Level Denver Center
08:27PM 40.3925 -103.1042 328° Northwest 424 488 36,000  Level Denver Center
08:28PM 40.4922 -103.1861 328° Northwest 425 489 36,000 240 Level Denver Center
08:29PM 40.5883 -103.2708 326° Northwest 419 482 36,500 720 Climbing Denver Center
08:30PM 40.6650 -103.3747 314° West 400 460 37,600 720 Climbing Denver Center
08:31PM 40.7539 -103.4989 313° West 389 448 38,000 180 Climbing Denver Center
08:32PM 40.8308 -103.6053 314° West 399 459 38,000  Level Denver Center
08:33PM 40.9103 -103.7136 314° West 409 471 38,000  Level Denver Center
08:34PM 40.9892 -103.8200 315° West 408 470 38,000  Level Denver Center
08:35PM 41.0750 -103.9356 315° West 407 468 38,000  Level Denver Center
08:36PM 41.1611 -104.0258 322° Northwest 417 480 38,000  Level Denver Center
08:37PM 41.2700 -104.1133 329° Northwest 408 470 38,000 -60 Level Denver Center
08:38PM 41.3625 -104.1900 328° Northwest 407 468 37,900  Descending Denver Center
08:39PM 41.4569 -104.2675 328° Northwest 415 478 38,000  Climbing Denver Center
08:40PM 41.5686 -104.3611 328° Northwest 423 487 38,000 -60 Level Denver Center
08:41PM 41.6639 -104.4403 328° Northwest 420 483 37,900  Descending Denver Center
08:42PM 41.7739 -104.5325 328° Northwest 418 481 38,000  Climbing Denver Center
08:43PM 41.8694 -104.6108 329° Northwest 418 481 38,000  Level Denver Center
08:44PM 41.9825 -104.7069 328° Northwest 430 495 38,000  Level Denver Center
08:45PM 42.0958 -104.8028 328° Northwest 430 495 38,000  Level Denver Center
08:47PM 42.2086 -104.8997 328° Northwest 429 494 38,000  Level Denver Center
08:48PM 42.3039 -104.9811 328° Northwest 424 488 38,000  Level Denver Center
08:49PM 42.3989 -105.0636 327° Northwest 422 486 38,000  Level Denver Center
08:50PM 42.5094 -105.1569 328° Northwest 417 480 38,000 -60 Level Denver Center
08:51PM 42.6033 -105.2383 327° Northwest 416 479 37,900  Descending Denver Center
08:52PM 42.6972 -105.3197 328° Northwest 417 480 38,000  Climbing Denver Center
08:53PM 42.8094 -105.4175 327° Northwest 427 491 38,000  Level Denver Center
08:54PM 42.9064 -105.5000 328° Northwest 428 493 38,000  Level Denver Center
08:55PM 43.0183 -105.5994 327° Northwest 428 493 38,000  Level Denver Center
08:56PM 43.1161 -105.6844 328° Northwest 434 499 38,000  Level Denver Center
08:57PM 43.2444 -105.7978 327° Northwest 430 495 38,000  Level Denver Center
08:58PM 43.3400 -105.8828 327° Northwest 428 493 38,000  Level Denver Center
08:59PM 43.4508 -105.9808 327° Northwest 423 487 38,000 -60 Level Denver Center
09:00PM 43.5450 -106.0650 327° Northwest 422 486 37,900  Descending Denver Center
09:01PM 43.6389 -106.1497 327° Northwest 421 484 38,000  Climbing Denver Center
09:02PM 43.7500 -106.2503 327° Northwest 426 490 38,000  Level Salt Lake Center
09:03PM 43.8461 -106.3389 326° Northwest 432 497 38,000 -60 Level Salt Lake Center
09:04PM 43.9572 -106.4386 327° Northwest 425 489 37,900 -60 Descending Salt Lake Center
09:05PM 44.0483 -106.5222 327° Northwest 421 484 37,900  Level Salt Lake Center
09:06PM 44.1592 -106.6247 326° Northwest 427 491 38,000  Climbing Salt Lake Center
09:07PM 44.2531 -106.7106 327° Northwest 421 484 38,000  Level Salt Lake Center
09:08PM 44.3650 -106.8114 327° Northwest 426 490 38,000  Level Salt Lake Center
09:09PM 44.4589 -106.9003 326° Northwest 424 488 38,000  Level Salt Lake Center
09:10PM 44.5547 -106.9883 327° Northwest 428 493 38,000  Level Salt Lake Center
09:11PM 44.6664 -107.0936 326° Northwest 431 496 38,000  Level Salt Lake Center
09:12PM 44.7625 -107.1822 327° Northwest 432 497 38,000  Level Salt Lake Center
09:13PM 44.8719 -107.2886 325° Northwest 430 495 38,000  Level Salt Lake Center
09:14PM 44.9675 -107.3781 326° Northwest 432 497 38,000  Level Salt Lake Center
09:15PM 45.0781 -107.4842 326° Northwest 432 497 38,000  Level Salt Lake Center
09:16PM 45.1722 -107.5739 326° Northwest 431 496 38,000  Level Salt Lake Center
09:17PM 45.2653 -107.6650 325° Northwest 429 494 38,000  Level Salt Lake Center
09:19PM 45.3758 -107.7703 326° Northwest 429 494 38,000  Level Salt Lake Center
09:20PM 45.4697 -107.8622 326° Northwest 430 495 38,000  Level Salt Lake Center
09:21PM 45.5806 -107.9697 326° Northwest 433 498 38,000  Level Salt Lake Center
09:22PM 45.6739 -108.0614 326° Northwest 428 493 38,000  Level Salt Lake Center
09:23PM 45.7672 -108.1528 326° Northwest 427 491 38,000  Level Salt Lake Center
09:24PM 45.8772 -108.2600 326° Northwest 429 494 38,000  Level Salt Lake Center
09:25PM 45.9714 -108.3531 326° Northwest 430 495 38,000  Level Salt Lake Center
09:26PM 46.0806 -108.4617 325° Northwest 427 491 38,000  Level Salt Lake Center
09:27PM 46.1736 -108.5558 325° Northwest 427 491 38,000  Level Salt Lake Center
09:28PM 46.2669 -108.6500 325° Northwest 428 493 38,000  Level Salt Lake Center
09:29PM 46.3753 -108.7594 325° Northwest 426 490 38,000  Level Salt Lake Center
09:30PM 46.4681 -108.8528 325° Northwest 426 490 38,000  Level Salt Lake Center
09:31PM 46.5767 -108.9639 325° Northwest 428 493 38,000  Level Salt Lake Center
09:32PM 46.6694 -109.0594 325° Northwest 428 493 38,000 -60 Level Salt Lake Center
09:33PM 46.7617 -109.1553 325° Northwest 428 493 37,900 -60 Descending Salt Lake Center
09:34PM 46.8569 -109.2542 325° Northwest 424 488 37,900  Level Salt Lake Center
09:35PM 46.9531 -109.3542 325° Northwest 424 488 37,900  Level Salt Lake Center
09:36PM 47.0494 -109.4542 325° Northwest 427 491 38,000  Climbing Salt Lake Center
09:37PM 47.1636 -109.5744 324° Northwest 422 486 37,900 -60 Descending Salt Lake Center
09:38PM 47.2594 -109.6747 325° Northwest 425 489 37,900  Level Salt Lake Center
09:39PM 47.3550 -109.7772 324° Northwest 427 491 37,900  Level Salt Lake Center
09:40PM 47.4511 -109.8792 324° Northwest 426 490 38,000  Climbing Salt Lake Center
09:41PM 47.5467 -109.9803 324° Northwest 425 489 38,000 -60 Level Salt Lake Center
09:42PM 47.6414 -110.0839 324° Northwest 425 489 37,900 -60 Descending Salt Lake Center
09:43PM 47.7361 -110.1864 324° Northwest 426 490 37,900  Level Salt Lake Center
09:44PM 47.8350 -110.2894 325° Northwest 432 497 37,900  Level Salt Lake Center
09:45PM 47.9489 -110.4133 324° Northwest 429 494 37,900  Level Salt Lake Center
09:46PM 48.0447 -110.5189 324° Northwest 429 494 38,000  Climbing Salt Lake Center
09:47PM 48.1394 -110.6233 324° Northwest 428 493 38,000  Level Salt Lake Center
09:48PM 48.2339 -110.7283 323° Northwest 427 491 38,000 -60 Level Salt Lake Center
09:49PM 48.3267 -110.8311 324° Northwest 421 484 37,900 -60 Descending Salt Lake Center
09:50PM 48.4200 -110.9358 323° Northwest 420 483 37,900  Level Salt Lake Center
09:51PM 48.5133 -111.0400 324° Northwest 421 484 37,900  Level Salt Lake Center
09:52PM 48.6247 -111.1633 324° Northwest 417 480 37,900  Level Salt Lake Center
09:53PM 48.7167 -111.2683 323° Northwest 418 481 37,900  Level Salt Lake Center
09:54PM 48.8089 -111.3742 323° Northwest 418 481 37,900  Level Salt Lake Center
09:55PM 48.9006 -111.4783 323° Northwest 415 478 37,900 60 Level Salt Lake Center
09:56PM 48.9000 -111.5167 269° West 410 472 38,000 60 Climbing Edmonton Center
09:57PM 49.0000 -111.6333 323° Northwest 410 472 38,000  Level Edmonton Center
09:58PM 49.0833 -111.7333 322° Northwest 410 472 38,000  Level Edmonton Center
09:59PM 49.1833 -111.8500 323° Northwest 410 472 38,000  Level Edmonton Center
10:00PM 49.2833 -111.9667 323° Northwest 410 472 38,000  Level Edmonton Center
10:01PM 49.3500 -112.0500 321° Northwest 410 472 38,000  Level Edmonton Center
10:02PM 49.4500 -112.1667 323° Northwest 410 472 38,000  Level Edmonton Center
10:03PM 49.5500 -112.2667 327° Northwest 410 472 38,000  Level Edmonton Center
10:04PM 49.6333 -112.3833 318° Northwest 410 472 38,000  Level Edmonton Center
10:05PM 49.7333 -112.5000 323° Northwest 410 472 38,000  Level Edmonton Center
10:06PM 49.8167 -112.6000 322° Northwest 410 472 38,000  Level Edmonton Center
10:07PM 49.9000 -112.7167 318° Northwest 410 472 38,000  Level Edmonton Center
10:08PM 50.0000 -112.8167 327° Northwest 400 460 38,000  Level Edmonton Center
10:09PM 50.0833 -112.9333 318° Northwest 400 460 38,000  Level Edmonton Center
10:10PM 50.1667 -113.0333 322° Northwest 400 460 38,000  Level Edmonton Center
10:11PM 50.2500 -113.1500 318° Northwest 400 460 38,000  Level Edmonton Center
10:12PM 50.3333 -113.2500 323° Northwest 400 460 38,000  Level Edmonton Center
10:13PM 50.4333 -113.3333 332° Northwest 390 449 38,000  Level Edmonton Center
10:14PM 50.5167 -113.4333 323° Northwest 390 449 38,000  Level Edmonton Center
10:15PM 50.6333 -113.5167 336° Northwest 390 449 38,000  Level Edmonton Center
10:16PM 50.7333 -113.5833 337° Northwest 400 460 38,000  Level Edmonton Center
10:17PM 50.8333 -113.6833 328° Northwest 400 460 38,000  Level Edmonton Center
10:18PM 50.9167 -113.7500 333° Northwest 400 460 38,000  Level Edmonton Center
10:19PM 51.0167 -113.8500 328° Northwest 390 449 38,000  Level Edmonton Center
10:20PM 51.1333 -113.9000 345° North 400 460 38,000  Level Edmonton Center
10:21PM 51.2500 -113.9000 360° North 410 472 38,000  Level Edmonton Center
10:22PM 51.3500 -113.9000 360° North 400 460 38,000  Level Edmonton Center
10:23PM 51.4667 -113.9000 360° North 400 460 38,000  Level Edmonton Center
10:24PM 51.5833 -113.9000 360° North 410 472 38,000  Level Edmonton Center
10:25PM 51.7167 -113.9000 360° North 410 472 38,000  Level Edmonton Center
10:26PM 51.8167 -113.9167 354° North 410 472 38,000 -420 Level Edmonton Center
10:27PM 51.9333 -113.9167 360° North 410 472 37,200 -960 Descending Edmonton Center
10:28PM 52.0500 -113.9000 North 410 472 36,100 -1,020 Descending Edmonton Center
10:29PM 52.1500 -113.9500 343° North 400 460 35,200 -1,200 Descending Edmonton Center
10:30PM 52.2500 -114.0333 333° Northwest 400 460 33,800 -2,640 Descending Edmonton Center
10:31PM 52.3667 -114.0833 345° North 410 472 30,000 -3,540 Descending Edmonton Center
10:32PM 52.4667 -114.1333 343° North 420 483 26,800 -3,300 Descending Edmonton Center
10:33PM 52.5833 -114.1333 360° North 420 483 23,400 -3,060 Descending Edmonton Center
10:34PM 52.7167 -114.0833 13° North 420 483 20,700 -2,760 Descending Edmonton Center
10:35PM 52.8167 -114.0500 11° North 410 472 17,900 -2,820 Descending Edmonton Center
10:36PM 52.9167 -113.9333 35° Northeast 400 460 15,100 -2,820 Descending Edmonton Center
10:37PM 52.9833 -113.8000 50° Northeast 390 449 12,300 -2,460 Descending Edmonton Center
10:38PM 53.0667 -113.6833 40° Northeast 370 426 10,200 -1,200 Descending Edmonton Center
10:39PM 53.1500 -113.5833 36° Northeast 310 357 10,000 -780 Descending Edmonton Center
10:40PM 53.2000 -113.5000 45° Northeast 280 322 8,700 -840 Descending Edmonton Center
10:41PM 53.2500 -113.4333 39° Northeast 240 276 8,400 -960 Descending Edmonton Center
10:42PM 53.3000 -113.3833 31° Northeast 210 242 6,800 -1,680 Descending Edmonton Center
10:43PM 53.3667 -113.3333 24° Northeast 220 253 5,100 -900 Descending Edmonton Center
10:44PM 53.4000 -113.3500 343° North 200 230 5,000 -300 Descending Edmonton Center
10:45PM 53.4333 -113.4167 310° West 180 207 4,500 -540 Descending Edmonton Center
10:46PM 53.4000 -113.5000 236° Southwest 170 196 4,000 -420 Descending Edmonton Center
10:47PM 53.3667 -113.5167 197° South 150 173 3,700 -540 Descending Edmonton Center
10:48PM 53.3333 -113.5667 222° Southwest 140 161 3,000 -720 Descending Edmonton Center
10:49PM 53.3000 -113.5833 197° South 140 161 2,300 -720 Descending Edmonton Center